sensor_id;sensor_type;location;lat;lon;timestamp;temperature;humidity
19242;DHT22;9755;47.790;9.620;2023-02-17T00:00:18;6.50;99.90
19242;DHT22;9755;47.790;9.620;2023-02-17T00:02:45;6.50;85.00
19242;DHT22;9755;47.790;9.620;2023-02-17T00:05:12;6.50;36.30
19242;DHT22;9755;47.790;9.620;2023-02-17T00:07:39;6.60;1.00
19242;DHT22;9755;47.790;9.620;2023-02-17T00:10:08;6.60;1.00
19242;DHT22;9755;47.790;9.620;2023-02-17T00:12:37;6.60;1.00
19242;DHT22;9755;47.790;9.620;2023-02-17T00:15:04;6.60;1.00
19242;DHT22;9755;47.790;9.620;2023-02-17T00:17:31;6.60;1.00
19242;DHT22;9755;47.790;9.620;2023-02-17T00:19:59;6.60;1.00
19242;DHT22;9755;47.790;9.620;2023-02-17T00:22:26;6.60;1.00
19242;DHT22;9755;47.790;9.620;2023-02-17T00:24:53;6.70;1.00
19242;DHT22;9755;47.790;9.620;2023-02-17T00:27:20;6.70;1.00
19242;DHT22;9755;47.790;9.620;2023-02-17T00:29:48;6.70;1.00
19242;DHT22;9755;47.790;9.620;2023-02-17T00:32:15;6.70;1.00
19242;DHT22;9755;47.790;9.620;2023-02-17T00:34:42;6.70;1.00
19242;DHT22;9755;47.790;9.620;2023-02-17T00:37:09;6.70;1.00
19242;DHT22;9755;47.790;9.620;2023-02-17T00:39:36;6.70;1.00
19242;DHT22;9755;47.790;9.620;2023-02-17T00:42:04;6.70;1.00
19242;DHT22;9755;47.790;9.620;2023-02-17T00:44:31;6.80;1.00
19242;DHT22;9755;47.790;9.620;2023-02-17T00:46:59;6.80;1.00
19242;DHT22;9755;47.790;9.620;2023-02-17T00:49:26;6.80;1.00
19242;DHT22;9755;47.790;9.620;2023-02-17T00:51:53;6.80;1.00
19242;DHT22;9755;47.790;9.620;2023-02-17T00:54:20;6.80;1.00
19242;DHT22;9755;47.790;9.620;2023-02-17T00:56:47;6.80;1.00
19242;DHT22;9755;47.790;9.620;2023-02-17T00:59:17;6.80;1.00
19242;DHT22;9755;47.790;9.620;2023-02-17T01:01:45;6.80;1.00
19242;DHT22;9755;47.790;9.620;2023-02-17T01:04:13;6.80;1.00
19242;DHT22;9755;47.790;9.620;2023-02-17T01:06:40;6.70;1.00
19242;DHT22;9755;47.790;9.620;2023-02-17T01:09:11;6.60;1.00
19242;DHT22;9755;47.790;9.620;2023-02-17T01:11:40;6.50;20.30
19242;DHT22;9755;47.790;9.620;2023-02-17T01:14:07;6.40;99.90
19242;DHT22;9755;47.790;9.620;2023-02-17T01:16:37;6.20;99.90
19242;DHT22;9755;47.790;9.620;2023-02-17T01:19:06;6.10;1.00
19242;DHT22;9755;47.790;9.620;2023-02-17T01:21:35;6.00;1.00
19242;DHT22;9755;47.790;9.620;2023-02-17T01:24:05;5.90;1.00
19242;DHT22;9755;47.790;9.620;2023-02-17T01:26:33;5.90;1.00
19242;DHT22;9755;47.790;9.620;2023-02-17T01:29:01;5.90;1.00
19242;DHT22;9755;47.790;9.620;2023-02-17T01:31:29;5.90;1.00
19242;DHT22;9755;47.790;9.620;2023-02-17T01:33:58;6.00;1.00
19242;DHT22;9755;47.790;9.620;2023-02-17T01:36:26;6.10;99.90
19242;DHT22;9755;47.790;9.620;2023-02-17T01:38:54;6.20;99.90
19242;DHT22;9755;47.790;9.620;2023-02-17T01:41:24;6.30;59.10
19242;DHT22;9755;47.790;9.620;2023-02-17T01:44:10;6.30;69.50
19242;DHT22;9755;47.790;9.620;2023-02-17T01:46:38;6.40;12.00
19242;DHT22;9755;47.790;9.620;2023-02-17T01:49:14;6.40;1.00
19242;DHT22;9755;47.790;9.620;2023-02-17T01:51:45;6.30;3.20
19242;DHT22;9755;47.790;9.620;2023-02-17T01:54:18;6.40;1.00
19242;DHT22;9755;47.790;9.620;2023-02-17T01:56:47;6.40;1.00
19242;DHT22;9755;47.790;9.620;2023-02-17T01:59:17;6.40;1.00
19242;DHT22;9755;47.790;9.620;2023-02-17T02:01:46;6.40;1.00
19242;DHT22;9755;47.790;9.620;2023-02-17T02:04:14;6.40;1.00
19242;DHT22;9755;47.790;9.620;2023-02-17T02:06:44;6.40;1.00
19242;DHT22;9755;47.790;9.620;2023-02-17T02:09:17;6.40;1.00
19242;DHT22;9755;47.790;9.620;2023-02-17T02:11:47;6.40;1.00
19242;DHT22;9755;47.790;9.620;2023-02-17T02:14:14;6.40;1.00
19242;DHT22;9755;47.790;9.620;2023-02-17T02:16:46;6.30;36.80
19242;DHT22;9755;47.790;9.620;2023-02-17T02:19:37;6.30;99.90
19242;DHT22;9755;47.790;9.620;2023-02-17T02:25:23;6.10;99.90
19242;DHT22;9755;47.790;9.620;2023-02-17T02:28:05;6.00;1.00
19242;DHT22;9755;47.790;9.620;2023-02-17T02:30:53;5.90;1.00
19242;DHT22;9755;47.790;9.620;2023-02-17T02:33:32;5.90;1.00
19242;DHT22;9755;47.790;9.620;2023-02-17T02:36:04;5.80;1.00
19242;DHT22;9755;47.790;9.620;2023-02-17T02:38:37;5.80;1.00
19242;DHT22;9755;47.790;9.620;2023-02-17T02:41:10;5.80;1.00
19242;DHT22;9755;47.790;9.620;2023-02-17T02:43:40;5.80;1.00
19242;DHT22;9755;47.790;9.620;2023-02-17T02:46:09;5.80;1.00
19242;DHT22;9755;47.790;9.620;2023-02-17T02:48:38;5.80;1.00
19242;DHT22;9755;47.790;9.620;2023-02-17T02:51:21;5.80;1.00
19242;DHT22;9755;47.790;9.620;2023-02-17T02:54:11;6.00;99.90
19242;DHT22;9755;47.790;9.620;2023-02-17T02:56:53;6.10;99.90
19242;DHT22;9755;47.790;9.620;2023-02-17T02:59:33;6.10;99.90
19242;DHT22;9755;47.790;9.620;2023-02-17T03:02:09;6.20;99.90
19242;DHT22;9755;47.790;9.620;2023-02-17T03:04:44;6.30;99.90
19242;DHT22;9755;47.790;9.620;2023-02-17T03:07:20;6.30;94.20
19242;DHT22;9755;47.790;9.620;2023-02-17T03:09:50;6.40;1.00
19242;DHT22;9755;47.790;9.620;2023-02-17T03:12:17;6.60;1.00
19242;DHT22;9755;47.790;9.620;2023-02-17T03:14:47;6.70;1.00
19242;DHT22;9755;47.790;9.620;2023-02-17T03:17:15;6.80;1.00
19242;DHT22;9755;47.790;9.620;2023-02-17T03:19:43;7.30;1.00
19242;DHT22;9755;47.790;9.620;2023-02-17T03:22:16;7.60;1.00
19242;DHT22;9755;47.790;9.620;2023-02-17T03:24:45;7.70;1.00
19242;DHT22;9755;47.790;9.620;2023-02-17T03:27:12;7.90;1.00
19242;DHT22;9755;47.790;9.620;2023-02-17T03:29:39;8.20;1.00
19242;DHT22;9755;47.790;9.620;2023-02-17T03:32:06;8.50;1.00
19242;DHT22;9755;47.790;9.620;2023-02-17T03:34:34;8.80;1.00
19242;DHT22;9755;47.790;9.620;2023-02-17T03:37:02;8.90;1.00
19242;DHT22;9755;47.790;9.620;2023-02-17T03:39:29;8.90;1.00
19242;DHT22;9755;47.790;9.620;2023-02-17T03:41:57;8.90;99.90
19242;DHT22;9755;47.790;9.620;2023-02-17T03:44:24;8.90;99.90
19242;DHT22;9755;47.790;9.620;2023-02-17T03:46:51;9.00;99.90
19242;DHT22;9755;47.790;9.620;2023-02-17T03:49:18;9.00;99.90
19242;DHT22;9755;47.790;9.620;2023-02-17T03:51:45;9.10;99.90
19242;DHT22;9755;47.790;9.620;2023-02-17T03:54:13;9.10;99.90
19242;DHT22;9755;47.790;9.620;2023-02-17T03:56:40;9.00;99.90
19242;DHT22;9755;47.790;9.620;2023-02-17T03:59:08;9.00;99.90
19242;DHT22;9755;47.790;9.620;2023-02-17T04:01:35;9.00;99.90
19242;DHT22;9755;47.790;9.620;2023-02-17T04:04:02;9.00;99.90
19242;DHT22;9755;47.790;9.620;2023-02-17T04:06:29;8.80;99.90
19242;DHT22;9755;47.790;9.620;2023-02-17T04:08:56;8.80;99.90
19242;DHT22;9755;47.790;9.620;2023-02-17T04:11:25;8.80;99.90
19242;DHT22;9755;47.790;9.620;2023-02-17T04:13:52;8.80;99.90
19242;DHT22;9755;47.790;9.620;2023-02-17T04:16:19;8.70;99.90
19242;DHT22;9755;47.790;9.620;2023-02-17T04:18:46;8.70;99.90
19242;DHT22;9755;47.790;9.620;2023-02-17T04:21:13;8.70;99.90
19242;DHT22;9755;47.790;9.620;2023-02-17T04:23:40;8.60;99.90
19242;DHT22;9755;47.790;9.620;2023-02-17T04:26:08;8.50;99.90
19242;DHT22;9755;47.790;9.620;2023-02-17T04:28:39;8.40;99.90
19242;DHT22;9755;47.790;9.620;2023-02-17T04:31:06;8.40;99.90
19242;DHT22;9755;47.790;9.620;2023-02-17T04:33:33;8.40;99.90
19242;DHT22;9755;47.790;9.620;2023-02-17T04:36:02;8.40;99.90
19242;DHT22;9755;47.790;9.620;2023-02-17T04:38:30;8.40;99.90
19242;DHT22;9755;47.790;9.620;2023-02-17T04:40:59;8.30;99.90
19242;DHT22;9755;47.790;9.620;2023-02-17T04:43:27;8.20;1.00
19242;DHT22;9755;47.790;9.620;2023-02-17T04:45:56;8.10;1.00
19242;DHT22;9755;47.790;9.620;2023-02-17T04:48:24;8.10;1.00
19242;DHT22;9755;47.790;9.620;2023-02-17T04:50:51;8.20;1.00
19242;DHT22;9755;47.790;9.620;2023-02-17T04:53:19;8.30;1.00
19242;DHT22;9755;47.790;9.620;2023-02-17T04:55:47;8.40;1.00
19242;DHT22;9755;47.790;9.620;2023-02-17T04:58:17;8.40;1.00
19242;DHT22;9755;47.790;9.620;2023-02-17T05:00:45;8.60;99.90
19242;DHT22;9755;47.790;9.620;2023-02-17T05:03:14;8.60;99.90
19242;DHT22;9755;47.790;9.620;2023-02-17T05:05:41;8.70;99.90
19242;DHT22;9755;47.790;9.620;2023-02-17T05:08:08;8.70;99.90
19242;DHT22;9755;47.790;9.620;2023-02-17T05:10:35;8.80;99.90
19242;DHT22;9755;47.790;9.620;2023-02-17T05:13:02;8.90;99.90
19242;DHT22;9755;47.790;9.620;2023-02-17T05:15:40;8.90;99.90
19242;DHT22;9755;47.790;9.620;2023-02-17T05:18:08;9.00;99.90
19242;DHT22;9755;47.790;9.620;2023-02-17T05:20:37;9.00;99.90
19242;DHT22;9755;47.790;9.620;2023-02-17T05:23:04;9.00;99.90
19242;DHT22;9755;47.790;9.620;2023-02-17T05:25:31;9.10;99.90
19242;DHT22;9755;47.790;9.620;2023-02-17T05:27:58;9.10;99.90
19242;DHT22;9755;47.790;9.620;2023-02-17T05:30:25;9.10;99.90
19242;DHT22;9755;47.790;9.620;2023-02-17T05:32:52;9.10;99.90
19242;DHT22;9755;47.790;9.620;2023-02-17T05:35:20;9.00;99.90
19242;DHT22;9755;47.790;9.620;2023-02-17T05:37:49;9.00;99.90
19242;DHT22;9755;47.790;9.620;2023-02-17T05:40:16;9.00;99.90
19242;DHT22;9755;47.790;9.620;2023-02-17T05:42:43;9.00;99.90
19242;DHT22;9755;47.790;9.620;2023-02-17T05:45:10;9.00;99.90
19242;DHT22;9755;47.790;9.620;2023-02-17T05:47:37;8.90;99.90
19242;DHT22;9755;47.790;9.620;2023-02-17T05:50:06;8.90;99.90
19242;DHT22;9755;47.790;9.620;2023-02-17T05:52:33;8.90;99.90
19242;DHT22;9755;47.790;9.620;2023-02-17T05:55:01;9.00;99.90
19242;DHT22;9755;47.790;9.620;2023-02-17T05:57:29;9.00;99.90
19242;DHT22;9755;47.790;9.620;2023-02-17T05:59:56;9.00;99.90
19242;DHT22;9755;47.790;9.620;2023-02-17T06:02:23;9.00;99.90
19242;DHT22;9755;47.790;9.620;2023-02-17T06:04:50;8.90;99.90
19242;DHT22;9755;47.790;9.620;2023-02-17T06:07:17;8.90;99.90
19242;DHT22;9755;47.790;9.620;2023-02-17T06:09:45;8.90;99.90
19242;DHT22;9755;47.790;9.620;2023-02-17T06:12:14;8.90;99.90
19242;DHT22;9755;47.790;9.620;2023-02-17T06:14:41;8.80;99.90
19242;DHT22;9755;47.790;9.620;2023-02-17T06:17:08;8.90;99.90
19242;DHT22;9755;47.790;9.620;2023-02-17T06:19:35;8.80;99.90
19242;DHT22;9755;47.790;9.620;2023-02-17T06:22:02;8.90;99.90
19242;DHT22;9755;47.790;9.620;2023-02-17T06:24:30;8.90;99.90
19242;DHT22;9755;47.790;9.620;2023-02-17T06:26:57;8.90;99.90
19242;DHT22;9755;47.790;9.620;2023-02-17T06:29:25;9.00;99.90
19242;DHT22;9755;47.790;9.620;2023-02-17T06:31:53;9.10;99.90
19242;DHT22;9755;47.790;9.620;2023-02-17T06:34:20;9.20;99.90
19242;DHT22;9755;47.790;9.620;2023-02-17T06:36:47;9.20;99.90
19242;DHT22;9755;47.790;9.620;2023-02-17T06:39:14;9.20;99.90
19242;DHT22;9755;47.790;9.620;2023-02-17T06:41:41;9.20;99.90
19242;DHT22;9755;47.790;9.620;2023-02-17T06:44:08;9.20;99.90
19242;DHT22;9755;47.790;9.620;2023-02-17T06:46:37;9.20;99.90
19242;DHT22;9755;47.790;9.620;2023-02-17T06:49:04;9.20;99.90
19242;DHT22;9755;47.790;9.620;2023-02-17T06:51:31;9.20;99.90
19242;DHT22;9755;47.790;9.620;2023-02-17T06:53:58;9.20;99.90
19242;DHT22;9755;47.790;9.620;2023-02-17T06:56:25;9.20;99.90
19242;DHT22;9755;47.790;9.620;2023-02-17T06:58:52;9.20;99.90
19242;DHT22;9755;47.790;9.620;2023-02-17T07:01:21;9.20;99.90
19242;DHT22;9755;47.790;9.620;2023-02-17T07:03:52;9.20;99.90
19242;DHT22;9755;47.790;9.620;2023-02-17T07:06:19;9.20;99.90
19242;DHT22;9755;47.790;9.620;2023-02-17T07:08:46;9.30;99.90
19242;DHT22;9755;47.790;9.620;2023-02-17T07:11:14;9.30;99.90
19242;DHT22;9755;47.790;9.620;2023-02-17T07:13:42;9.40;99.90
19242;DHT22;9755;47.790;9.620;2023-02-17T07:16:10;9.40;99.90
19242;DHT22;9755;47.790;9.620;2023-02-17T07:18:38;9.50;99.90
19242;DHT22;9755;47.790;9.620;2023-02-17T07:21:08;9.50;99.90
19242;DHT22;9755;47.790;9.620;2023-02-17T07:23:35;9.50;99.90
19242;DHT22;9755;47.790;9.620;2023-02-17T07:26:04;9.50;99.90
19242;DHT22;9755;47.790;9.620;2023-02-17T07:28:32;9.50;99.90
19242;DHT22;9755;47.790;9.620;2023-02-17T07:31:04;9.50;99.90
19242;DHT22;9755;47.790;9.620;2023-02-17T07:33:32;9.50;99.90
19242;DHT22;9755;47.790;9.620;2023-02-17T07:35:59;9.50;99.90
19242;DHT22;9755;47.790;9.620;2023-02-17T07:38:28;9.50;99.90
19242;DHT22;9755;47.790;9.620;2023-02-17T07:40:55;9.50;99.90
19242;DHT22;9755;47.790;9.620;2023-02-17T07:43:22;9.50;99.90
19242;DHT22;9755;47.790;9.620;2023-02-17T07:45:53;9.60;99.90
19242;DHT22;9755;47.790;9.620;2023-02-17T07:48:20;9.50;99.90
19242;DHT22;9755;47.790;9.620;2023-02-17T07:50:47;9.60;99.90
19242;DHT22;9755;47.790;9.620;2023-02-17T07:53:14;9.60;99.90
19242;DHT22;9755;47.790;9.620;2023-02-17T07:55:42;9.80;99.90
19242;DHT22;9755;47.790;9.620;2023-02-17T07:58:09;9.80;99.90
19242;DHT22;9755;47.790;9.620;2023-02-17T08:00:36;10.00;99.90
19242;DHT22;9755;47.790;9.620;2023-02-17T08:03:03;10.10;99.90
19242;DHT22;9755;47.790;9.620;2023-02-17T08:05:31;10.10;99.90
19242;DHT22;9755;47.790;9.620;2023-02-17T08:07:58;10.30;99.90
19242;DHT22;9755;47.790;9.620;2023-02-17T08:10:43;10.30;99.90
19242;DHT22;9755;47.790;9.620;2023-02-17T08:13:27;10.40;99.90
19242;DHT22;9755;47.790;9.620;2023-02-17T08:15:54;10.30;99.90
19242;DHT22;9755;47.790;9.620;2023-02-17T08:18:21;10.40;99.90
19242;DHT22;9755;47.790;9.620;2023-02-17T08:20:48;10.50;99.90
19242;DHT22;9755;47.790;9.620;2023-02-17T08:23:16;10.50;99.90
19242;DHT22;9755;47.790;9.620;2023-02-17T08:25:44;10.60;99.90
19242;DHT22;9755;47.790;9.620;2023-02-17T08:28:11;10.70;99.90
19242;DHT22;9755;47.790;9.620;2023-02-17T08:30:39;10.90;99.90
19242;DHT22;9755;47.790;9.620;2023-02-17T08:33:06;11.10;99.90
19242;DHT22;9755;47.790;9.620;2023-02-17T08:35:33;11.30;99.90
19242;DHT22;9755;47.790;9.620;2023-02-17T08:38:00;11.40;99.90
19242;DHT22;9755;47.790;9.620;2023-02-17T08:40:28;11.70;99.90
19242;DHT22;9755;47.790;9.620;2023-02-17T08:42:56;11.60;99.90
19242;DHT22;9755;47.790;9.620;2023-02-17T08:45:23;11.60;99.90
19242;DHT22;9755;47.790;9.620;2023-02-17T08:47:50;11.60;99.90
19242;DHT22;9755;47.790;9.620;2023-02-17T08:50:17;11.70;99.90
19242;DHT22;9755;47.790;9.620;2023-02-17T08:52:45;11.70;99.90
19242;DHT22;9755;47.790;9.620;2023-02-17T08:55:12;11.60;99.90
19242;DHT22;9755;47.790;9.620;2023-02-17T08:57:39;11.60;99.90
19242;DHT22;9755;47.790;9.620;2023-02-17T09:00:09;11.40;99.90
19242;DHT22;9755;47.790;9.620;2023-02-17T09:02:37;11.30;99.90
19242;DHT22;9755;47.790;9.620;2023-02-17T09:05:07;11.30;99.90
19242;DHT22;9755;47.790;9.620;2023-02-17T09:07:35;11.40;99.90
19242;DHT22;9755;47.790;9.620;2023-02-17T09:10:03;11.40;99.90
19242;DHT22;9755;47.790;9.620;2023-02-17T09:12:31;11.60;99.90
19242;DHT22;9755;47.790;9.620;2023-02-17T09:14:59;11.90;99.90
19242;DHT22;9755;47.790;9.620;2023-02-17T09:17:27;12.00;99.90
19242;DHT22;9755;47.790;9.620;2023-02-17T09:19:54;11.80;99.90
19242;DHT22;9755;47.790;9.620;2023-02-17T09:22:23;11.90;99.90
19242;DHT22;9755;47.790;9.620;2023-02-17T09:24:50;11.90;99.90
19242;DHT22;9755;47.790;9.620;2023-02-17T09:27:17;11.90;99.90
19242;DHT22;9755;47.790;9.620;2023-02-17T09:29:44;11.80;99.90
19242;DHT22;9755;47.790;9.620;2023-02-17T09:32:11;11.70;99.90
19242;DHT22;9755;47.790;9.620;2023-02-17T09:34:39;11.80;99.90
19242;DHT22;9755;47.790;9.620;2023-02-17T09:37:10;11.90;99.90
19242;DHT22;9755;47.790;9.620;2023-02-17T09:39:37;11.90;99.90
19242;DHT22;9755;47.790;9.620;2023-02-17T09:42:05;12.00;99.90
19242;DHT22;9755;47.790;9.620;2023-02-17T09:44:38;12.10;99.90
19242;DHT22;9755;47.790;9.620;2023-02-17T09:47:09;12.10;99.90
19242;DHT22;9755;47.790;9.620;2023-02-17T09:49:45;12.10;99.90
19242;DHT22;9755;47.790;9.620;2023-02-17T09:52:19;12.40;99.90
19242;DHT22;9755;47.790;9.620;2023-02-17T09:55:00;12.70;99.90
19242;DHT22;9755;47.790;9.620;2023-02-17T09:57:34;12.50;99.90
19242;DHT22;9755;47.790;9.620;2023-02-17T10:00:07;12.50;99.90
19242;DHT22;9755;47.790;9.620;2023-02-17T10:02:39;12.40;99.90
19242;DHT22;9755;47.790;9.620;2023-02-17T10:05:11;12.50;99.90
19242;DHT22;9755;47.790;9.620;2023-02-17T10:07:44;12.50;99.90
19242;DHT22;9755;47.790;9.620;2023-02-17T10:10:16;12.40;99.90
19242;DHT22;9755;47.790;9.620;2023-02-17T10:12:47;12.70;99.90
19242;DHT22;9755;47.790;9.620;2023-02-17T10:15:17;12.70;99.90
19242;DHT22;9755;47.790;9.620;2023-02-17T10:17:50;12.70;99.90
19242;DHT22;9755;47.790;9.620;2023-02-17T10:20:23;12.80;99.90
19242;DHT22;9755;47.790;9.620;2023-02-17T10:22:58;12.90;99.90
19242;DHT22;9755;47.790;9.620;2023-02-17T10:25:51;13.10;99.90
19242;DHT22;9755;47.790;9.620;2023-02-17T10:28:23;13.20;99.90
19242;DHT22;9755;47.790;9.620;2023-02-17T10:30:56;13.00;99.90
19242;DHT22;9755;47.790;9.620;2023-02-17T10:33:31;12.80;99.90
19242;DHT22;9755;47.790;9.620;2023-02-17T10:36:09;12.50;99.90
19242;DHT22;9755;47.790;9.620;2023-02-17T10:38:45;12.60;99.90
19242;DHT22;9755;47.790;9.620;2023-02-17T10:41:16;12.40;99.90
19242;DHT22;9755;47.790;9.620;2023-02-17T10:43:47;12.60;99.90
19242;DHT22;9755;47.790;9.620;2023-02-17T10:46:16;12.60;99.90
19242;DHT22;9755;47.790;9.620;2023-02-17T10:48:47;12.60;99.90
19242;DHT22;9755;47.790;9.620;2023-02-17T10:51:18;12.60;99.90
19242;DHT22;9755;47.790;9.620;2023-02-17T10:53:50;12.90;99.90
19242;DHT22;9755;47.790;9.620;2023-02-17T10:56:21;12.90;99.90
19242;DHT22;9755;47.790;9.620;2023-02-17T10:58:53;13.20;99.90
19242;DHT22;9755;47.790;9.620;2023-02-17T11:01:21;13.60;99.90
19242;DHT22;9755;47.790;9.620;2023-02-17T11:03:59;14.70;99.90
19242;DHT22;9755;47.790;9.620;2023-02-17T11:06:28;15.60;99.90
19242;DHT22;9755;47.790;9.620;2023-02-17T11:08:59;15.40;99.90
19242;DHT22;9755;47.790;9.620;2023-02-17T11:11:29;16.00;99.90
19242;DHT22;9755;47.790;9.620;2023-02-17T11:14:01;17.00;99.90
19242;DHT22;9755;47.790;9.620;2023-02-17T11:16:32;16.20;99.90
19242;DHT22;9755;47.790;9.620;2023-02-17T11:19:01;15.00;99.90
19242;DHT22;9755;47.790;9.620;2023-02-17T11:21:30;14.90;99.90
19242;DHT22;9755;47.790;9.620;2023-02-17T11:24:00;14.80;99.90
19242;DHT22;9755;47.790;9.620;2023-02-17T11:26:29;14.70;99.90
19242;DHT22;9755;47.790;9.620;2023-02-17T11:29:06;14.30;99.90
19242;DHT22;9755;47.790;9.620;2023-02-17T11:31:34;14.20;99.90
19242;DHT22;9755;47.790;9.620;2023-02-17T11:34:11;13.60;99.90
19242;DHT22;9755;47.790;9.620;2023-02-17T11:36:39;13.30;99.90
19242;DHT22;9755;47.790;9.620;2023-02-17T11:39:19;13.20;99.90
19242;DHT22;9755;47.790;9.620;2023-02-17T11:41:49;13.20;99.90
19242;DHT22;9755;47.790;9.620;2023-02-17T11:44:24;13.10;99.90
19242;DHT22;9755;47.790;9.620;2023-02-17T11:46:58;13.20;99.90
19242;DHT22;9755;47.790;9.620;2023-02-17T11:52:53;13.10;99.90
19242;DHT22;9755;47.790;9.620;2023-02-17T11:55:27;12.90;99.90
19242;DHT22;9755;47.790;9.620;2023-02-17T11:58:07;12.90;99.90
19242;DHT22;9755;47.790;9.620;2023-02-17T12:00:43;13.00;99.90
19242;DHT22;9755;47.790;9.620;2023-02-17T12:06:13;12.70;99.90
19242;DHT22;9755;47.790;9.620;2023-02-17T12:08:54;12.80;99.90
19242;DHT22;9755;47.790;9.620;2023-02-17T12:11:30;12.80;99.90
19242;DHT22;9755;47.790;9.620;2023-02-17T12:14:33;12.90;99.90
19242;DHT22;9755;47.790;9.620;2023-02-17T12:17:13;12.90;99.90
19242;DHT22;9755;47.790;9.620;2023-02-17T12:19:51;12.90;99.90
19242;DHT22;9755;47.790;9.620;2023-02-17T12:22:26;12.90;99.90
19242;DHT22;9755;47.790;9.620;2023-02-17T12:25:14;12.80;99.90
19242;DHT22;9755;47.790;9.620;2023-02-17T12:27:53;12.80;99.90
19242;DHT22;9755;47.790;9.620;2023-02-17T12:30:32;12.90;99.90
19242;DHT22;9755;47.790;9.620;2023-02-17T12:33:16;12.90;99.90
19242;DHT22;9755;47.790;9.620;2023-02-17T12:35:51;12.90;99.90
19242;DHT22;9755;47.790;9.620;2023-02-17T12:38:24;12.90;99.90
19242;DHT22;9755;47.790;9.620;2023-02-17T12:40:58;12.90;99.90
19242;DHT22;9755;47.790;9.620;2023-02-17T12:43:33;12.90;99.90
19242;DHT22;9755;47.790;9.620;2023-02-17T12:46:04;13.00;99.90
19242;DHT22;9755;47.790;9.620;2023-02-17T12:48:35;13.00;99.90
19242;DHT22;9755;47.790;9.620;2023-02-17T12:51:06;12.80;99.90
19242;DHT22;9755;47.790;9.620;2023-02-17T12:53:44;13.10;1.00
19242;DHT22;9755;47.790;9.620;2023-02-17T12:56:38;13.20;99.90
19242;DHT22;9755;47.790;9.620;2023-02-17T12:59:14;13.20;99.90
19242;DHT22;9755;47.790;9.620;2023-02-17T13:01:49;13.40;99.90
19242;DHT22;9755;47.790;9.620;2023-02-17T13:04:19;13.30;99.90
19242;DHT22;9755;47.790;9.620;2023-02-17T13:06:53;13.30;99.90
19242;DHT22;9755;47.790;9.620;2023-02-17T13:09:29;13.20;99.90
19242;DHT22;9755;47.790;9.620;2023-02-17T13:14:52;13.10;99.90
19242;DHT22;9755;47.790;9.620;2023-02-17T13:17:23;13.10;1.00
19242;DHT22;9755;47.790;9.620;2023-02-17T13:20:22;13.00;1.00
19242;DHT22;9755;47.790;9.620;2023-02-17T13:23:01;12.90;1.00
19242;DHT22;9755;47.790;9.620;2023-02-17T13:25:30;12.90;1.00
19242;DHT22;9755;47.790;9.620;2023-02-17T13:28:00;12.80;1.00
19242;DHT22;9755;47.790;9.620;2023-02-17T13:30:36;12.70;1.00
19242;DHT22;9755;47.790;9.620;2023-02-17T13:33:05;12.70;1.00
19242;DHT22;9755;47.790;9.620;2023-02-17T13:35:34;12.70;1.00
19242;DHT22;9755;47.790;9.620;2023-02-17T13:38:01;12.70;1.00
19242;DHT22;9755;47.790;9.620;2023-02-17T13:40:35;12.70;1.00
19242;DHT22;9755;47.790;9.620;2023-02-17T13:43:17;12.80;1.00
19242;DHT22;9755;47.790;9.620;2023-02-17T13:45:48;12.70;1.00
19242;DHT22;9755;47.790;9.620;2023-02-17T13:48:24;12.70;1.00
19242;DHT22;9755;47.790;9.620;2023-02-17T13:50:54;12.70;1.00
19242;DHT22;9755;47.790;9.620;2023-02-17T13:53:28;12.80;1.00
19242;DHT22;9755;47.790;9.620;2023-02-17T13:55:57;12.80;1.00
19242;DHT22;9755;47.790;9.620;2023-02-17T13:58:29;12.80;1.00
19242;DHT22;9755;47.790;9.620;2023-02-17T14:00:57;12.80;1.00
19242;DHT22;9755;47.790;9.620;2023-02-17T14:03:26;12.80;1.00
19242;DHT22;9755;47.790;9.620;2023-02-17T14:05:55;12.80;1.00
19242;DHT22;9755;47.790;9.620;2023-02-17T14:08:28;12.80;1.00
19242;DHT22;9755;47.790;9.620;2023-02-17T14:10:56;12.70;1.00
19242;DHT22;9755;47.790;9.620;2023-02-17T14:13:26;12.70;1.00
19242;DHT22;9755;47.790;9.620;2023-02-17T14:15:55;12.70;1.00
19242;DHT22;9755;47.790;9.620;2023-02-17T14:18:31;12.70;1.00
19242;DHT22;9755;47.790;9.620;2023-02-17T14:21:00;12.70;1.00
19242;DHT22;9755;47.790;9.620;2023-02-17T14:23:39;12.70;1.00
19242;DHT22;9755;47.790;9.620;2023-02-17T14:26:12;12.80;1.00
19242;DHT22;9755;47.790;9.620;2023-02-17T14:28:51;12.70;1.00
19242;DHT22;9755;47.790;9.620;2023-02-17T14:31:19;12.70;1.00
19242;DHT22;9755;47.790;9.620;2023-02-17T14:33:52;12.80;1.00
19242;DHT22;9755;47.790;9.620;2023-02-17T14:36:26;12.80;1.00
19242;DHT22;9755;47.790;9.620;2023-02-17T14:38:54;12.90;1.00
19242;DHT22;9755;47.790;9.620;2023-02-17T14:41:22;13.00;1.00
19242;DHT22;9755;47.790;9.620;2023-02-17T14:43:50;12.90;1.00
19242;DHT22;9755;47.790;9.620;2023-02-17T14:46:17;13.10;1.00
19242;DHT22;9755;47.790;9.620;2023-02-17T14:48:45;13.10;1.00
19242;DHT22;9755;47.790;9.620;2023-02-17T14:51:13;13.20;1.00
19242;DHT22;9755;47.790;9.620;2023-02-17T14:53:40;13.10;1.00
19242;DHT22;9755;47.790;9.620;2023-02-17T14:56:12;13.20;1.00
19242;DHT22;9755;47.790;9.620;2023-02-17T14:58:49;13.20;1.00
19242;DHT22;9755;47.790;9.620;2023-02-17T15:01:23;13.20;1.00
19242;DHT22;9755;47.790;9.620;2023-02-17T15:03:51;13.20;1.00
19242;DHT22;9755;47.790;9.620;2023-02-17T15:06:21;13.20;1.00
19242;DHT22;9755;47.790;9.620;2023-02-17T15:08:49;13.20;1.00
19242;DHT22;9755;47.790;9.620;2023-02-17T15:11:18;13.30;1.00
19242;DHT22;9755;47.790;9.620;2023-02-17T15:13:46;13.40;1.00
19242;DHT22;9755;47.790;9.620;2023-02-17T15:16:13;13.30;1.00
19242;DHT22;9755;47.790;9.620;2023-02-17T15:18:42;13.20;1.00
19242;DHT22;9755;47.790;9.620;2023-02-17T15:21:24;13.20;1.00
19242;DHT22;9755;47.790;9.620;2023-02-17T15:23:52;13.20;1.00
19242;DHT22;9755;47.790;9.620;2023-02-17T15:26:19;13.20;1.00
19242;DHT22;9755;47.790;9.620;2023-02-17T15:28:46;13.30;1.00
19242;DHT22;9755;47.790;9.620;2023-02-17T15:31:15;13.20;1.00
19242;DHT22;9755;47.790;9.620;2023-02-17T15:33:50;13.20;1.00
19242;DHT22;9755;47.790;9.620;2023-02-17T15:36:19;13.30;1.00
19242;DHT22;9755;47.790;9.620;2023-02-17T15:38:46;13.30;1.00
19242;DHT22;9755;47.790;9.620;2023-02-17T15:41:16;13.30;1.00
19242;DHT22;9755;47.790;9.620;2023-02-17T15:43:44;13.40;1.00
19242;DHT22;9755;47.790;9.620;2023-02-17T15:46:13;13.30;1.00
19242;DHT22;9755;47.790;9.620;2023-02-17T15:48:42;13.20;1.00
19242;DHT22;9755;47.790;9.620;2023-02-17T15:51:13;13.20;1.00
19242;DHT22;9755;47.790;9.620;2023-02-17T15:53:41;13.20;1.00
19242;DHT22;9755;47.790;9.620;2023-02-17T15:56:11;13.20;1.00
19242;DHT22;9755;47.790;9.620;2023-02-17T15:58:39;13.10;1.00
19242;DHT22;9755;47.790;9.620;2023-02-17T16:01:12;13.00;1.00
19242;DHT22;9755;47.790;9.620;2023-02-17T16:03:40;12.90;1.00
19242;DHT22;9755;47.790;9.620;2023-02-17T16:06:07;12.80;1.00
19242;DHT22;9755;47.790;9.620;2023-02-17T16:08:36;12.80;1.00
19242;DHT22;9755;47.790;9.620;2023-02-17T16:11:04;12.70;1.00
19242;DHT22;9755;47.790;9.620;2023-02-17T16:13:31;12.70;1.00
19242;DHT22;9755;47.790;9.620;2023-02-17T16:15:58;12.70;1.00
19242;DHT22;9755;47.790;9.620;2023-02-17T16:18:25;12.60;1.00
19242;DHT22;9755;47.790;9.620;2023-02-17T16:20:52;12.60;1.00
19242;DHT22;9755;47.790;9.620;2023-02-17T16:23:19;12.60;1.00
19242;DHT22;9755;47.790;9.620;2023-02-17T16:25:48;12.50;1.00
19242;DHT22;9755;47.790;9.620;2023-02-17T16:28:17;12.40;1.00
19242;DHT22;9755;47.790;9.620;2023-02-17T16:30:44;12.30;1.00